sensor_id;sensor_type;location;lat;lon;timestamp;P1;durP1;ratioP1;P2;durP2;ratioP2
55813;SDS011;65494;42.818;0.404;2024-03-25T00:00:38;4.28;;;1.30;;
55813;SDS011;65494;42.818;0.404;2024-03-25T00:03:04;4.70;;;1.70;;
55813;SDS011;65494;42.818;0.404;2024-03-25T00:05:30;2.55;;;1.00;;
55813;SDS011;65494;42.818;0.404;2024-03-25T00:07:57;4.22;;;1.10;;
55813;SDS011;65494;42.818;0.404;2024-03-25T00:10:23;3.90;;;1.20;;
55813;SDS011;65494;42.818;0.404;2024-03-25T00:12:49;3.92;;;1.30;;
55813;SDS011;65494;42.818;0.404;2024-03-25T00:15:19;6.88;;;1.50;;
55813;SDS011;65494;42.818;0.404;2024-03-25T00:17:46;6.40;;;1.52;;
55813;SDS011;65494;42.818;0.404;2024-03-25T00:20:12;4.57;;;1.50;;
55813;SDS011;65494;42.818;0.404;2024-03-25T00:22:40;3.95;;;1.40;;
55813;SDS011;65494;42.818;0.404;2024-03-25T00:25:06;6.57;;;1.58;;
55813;SDS011;65494;42.818;0.404;2024-03-25T00:27:33;3.50;;;1.30;;
55813;SDS011;65494;42.818;0.404;2024-03-25T00:30:01;2.55;;;1.10;;
55813;SDS011;65494;42.818;0.404;2024-03-25T00:32:30;8.50;;;1.65;;
55813;SDS011;65494;42.818;0.404;2024-03-25T00:34:56;5.35;;;1.40;;
55813;SDS011;65494;42.818;0.404;2024-03-25T00:37:22;3.58;;;1.50;;
55813;SDS011;65494;42.818;0.404;2024-03-25T00:39:49;7.78;;;1.38;;
55813;SDS011;65494;42.818;0.404;2024-03-25T00:42:15;4.25;;;1.13;;
55813;SDS011;65494;42.818;0.404;2024-03-25T00:44:41;4.63;;;0.90;;
55813;SDS011;65494;42.818;0.404;2024-03-25T00:47:08;5.13;;;1.10;;
55813;SDS011;65494;42.818;0.404;2024-03-25T00:49:34;4.40;;;1.10;;
55813;SDS011;65494;42.818;0.404;2024-03-25T00:52:00;3.47;;;0.98;;
55813;SDS011;65494;42.818;0.404;2024-03-25T00:54:27;2.88;;;0.93;;
55813;SDS011;65494;42.818;0.404;2024-03-25T00:56:53;8.88;;;2.80;;
55813;SDS011;65494;42.818;0.404;2024-03-25T00:59:19;7.35;;;2.00;;
55813;SDS011;65494;42.818;0.404;2024-03-25T01:01:45;6.32;;;2.10;;
55813;SDS011;65494;42.818;0.404;2024-03-25T01:04:11;6.10;;;1.90;;
55813;SDS011;65494;42.818;0.404;2024-03-25T01:06:38;3.97;;;1.60;;
55813;SDS011;65494;42.818;0.404;2024-03-25T01:09:06;3.90;;;1.45;;
55813;SDS011;65494;42.818;0.404;2024-03-25T01:11:33;4.18;;;1.30;;
55813;SDS011;65494;42.818;0.404;2024-03-25T01:13:59;4.90;;;1.33;;
55813;SDS011;65494;42.818;0.404;2024-03-25T01:16:28;2.22;;;1.25;;
55813;SDS011;65494;42.818;0.404;2024-03-25T01:18:54;3.00;;;1.10;;
55813;SDS011;65494;42.818;0.404;2024-03-25T01:21:20;3.15;;;1.20;;
55813;SDS011;65494;42.818;0.404;2024-03-25T01:23:46;3.55;;;1.20;;
55813;SDS011;65494;42.818;0.404;2024-03-25T01:26:12;3.55;;;1.23;;
55813;SDS011;65494;42.818;0.404;2024-03-25T01:28:38;3.40;;;1.00;;
55813;SDS011;65494;42.818;0.404;2024-03-25T01:31:04;1.63;;;1.05;;
55813;SDS011;65494;42.818;0.404;2024-03-25T01:33:33;3.45;;;1.35;;
55813;SDS011;65494;42.818;0.404;2024-03-25T01:36:00;4.57;;;1.60;;
55813;SDS011;65494;42.818;0.404;2024-03-25T01:38:26;3.58;;;1.25;;
55813;SDS011;65494;42.818;0.404;2024-03-25T01:40:52;4.97;;;1.48;;
55813;SDS011;65494;42.818;0.404;2024-03-25T01:43:18;3.85;;;1.40;;
55813;SDS011;65494;42.818;0.404;2024-03-25T01:45:44;5.15;;;1.40;;
55813;SDS011;65494;42.818;0.404;2024-03-25T01:48:11;2.95;;;1.27;;
55813;SDS011;65494;42.818;0.404;2024-03-25T01:50:54;6.35;;;1.42;;
55813;SDS011;65494;42.818;0.404;2024-03-25T01:53:21;5.80;;;1.40;;
55813;SDS011;65494;42.818;0.404;2024-03-25T01:55:55;3.78;;;1.38;;
55813;SDS011;65494;42.818;0.404;2024-03-25T01:58:24;4.05;;;1.30;;
55813;SDS011;65494;42.818;0.404;2024-03-25T02:00:51;4.80;;;1.90;;
55813;SDS011;65494;42.818;0.404;2024-03-25T02:03:43;5.63;;;1.52;;
55813;SDS011;65494;42.818;0.404;2024-03-25T02:06:13;2.67;;;1.25;;
55813;SDS011;65494;42.818;0.404;2024-03-25T02:08:43;5.40;;;1.15;;
55813;SDS011;65494;42.818;0.404;2024-03-25T02:11:10;2.80;;;1.10;;
55813;SDS011;65494;42.818;0.404;2024-03-25T02:13:40;3.13;;;1.15;;
55813;SDS011;65494;42.818;0.404;2024-03-25T02:16:07;7.65;;;1.35;;
55813;SDS011;65494;42.818;0.404;2024-03-25T02:18:33;3.25;;;1.70;;
55813;SDS011;65494;42.818;0.404;2024-03-25T02:20:59;6.50;;;1.80;;
55813;SDS011;65494;42.818;0.404;2024-03-25T02:23:26;4.43;;;1.45;;
55813;SDS011;65494;42.818;0.404;2024-03-25T02:25:52;4.18;;;1.40;;
55813;SDS011;65494;42.818;0.404;2024-03-25T02:28:19;5.30;;;1.33;;
55813;SDS011;65494;42.818;0.404;2024-03-25T02:30:45;4.72;;;1.23;;
55813;SDS011;65494;42.818;0.404;2024-03-25T02:33:12;3.72;;;1.40;;
55813;SDS011;65494;42.818;0.404;2024-03-25T02:35:39;2.33;;;1.25;;
55813;SDS011;65494;42.818;0.404;2024-03-25T02:38:33;7.63;;;1.58;;
55813;SDS011;65494;42.818;0.404;2024-03-25T02:44:55;2.80;;;1.20;;
55813;SDS011;65494;42.818;0.404;2024-03-25T02:53:59;5.53;;;1.48;;
55813;SDS011;65494;42.818;0.404;2024-03-25T03:03:07;3.60;;;1.17;;
55813;SDS011;65494;42.818;0.404;2024-03-25T03:18:37;3.40;;;1.40;;
55813;SDS011;65494;42.818;0.404;2024-03-25T03:21:48;5.18;;;1.23;;
55813;SDS011;65494;42.818;0.404;2024-03-25T03:30:44;5.55;;;1.55;;
55813;SDS011;65494;42.818;0.404;2024-03-25T03:36:54;5.22;;;1.85;;
55813;SDS011;65494;42.818;0.404;2024-03-25T03:45:19;5.13;;;1.60;;
55813;SDS011;65494;42.818;0.404;2024-03-25T03:47:49;6.68;;;1.10;;
55813;SDS011;65494;42.818;0.404;2024-03-25T03:50:15;3.00;;;1.20;;
55813;SDS011;65494;42.818;0.404;2024-03-25T03:52:41;7.93;;;1.60;;
55813;SDS011;65494;42.818;0.404;2024-03-25T03:55:10;4.60;;;1.20;;
55813;SDS011;65494;42.818;0.404;2024-03-25T03:57:36;3.03;;;1.30;;
55813;SDS011;65494;42.818;0.404;2024-03-25T04:00:03;7.95;;;1.70;;
55813;SDS011;65494;42.818;0.404;2024-03-25T04:21:56;9.55;;;2.40;;
55813;SDS011;65494;42.818;0.404;2024-03-25T04:27:17;5.82;;;1.40;;
55813;SDS011;65494;42.818;0.404;2024-03-25T04:30:03;11.70;;;1.85;;
55813;SDS011;65494;42.818;0.404;2024-03-25T04:32:29;20.25;;;3.45;;
55813;SDS011;65494;42.818;0.404;2024-03-25T04:34:55;8.65;;;1.90;;
55813;SDS011;65494;42.818;0.404;2024-03-25T04:37:25;4.65;;;1.42;;
55813;SDS011;65494;42.818;0.404;2024-03-25T04:39:52;7.80;;;1.73;;
55813;SDS011;65494;42.818;0.404;2024-03-25T04:42:56;3.33;;;1.35;;
55813;SDS011;65494;42.818;0.404;2024-03-25T04:49:07;4.97;;;1.55;;
55813;SDS011;65494;42.818;0.404;2024-03-25T05:00:32;11.10;;;1.88;;
55813;SDS011;65494;42.818;0.404;2024-03-25T05:49:53;4.70;;;1.42;;
55813;SDS011;65494;42.818;0.404;2024-03-25T06:47:10;4.15;;;1.40;;
55813;SDS011;65494;42.818;0.404;2024-03-25T06:49:36;6.07;;;1.70;;
55813;SDS011;65494;42.818;0.404;2024-03-25T06:52:02;8.98;;;1.60;;
55813;SDS011;65494;42.818;0.404;2024-03-25T06:54:29;9.23;;;1.65;;
55813;SDS011;65494;42.818;0.404;2024-03-25T06:56:55;6.15;;;1.50;;
55813;SDS011;65494;42.818;0.404;2024-03-25T07:01:50;7.82;;;1.77;;
55813;SDS011;65494;42.818;0.404;2024-03-25T07:04:16;6.25;;;1.30;;
55813;SDS011;65494;42.818;0.404;2024-03-25T07:06:42;5.07;;;1.50;;
55813;SDS011;65494;42.818;0.404;2024-03-25T07:09:08;4.70;;;1.63;;
55813;SDS011;65494;42.818;0.404;2024-03-25T07:11:49;7.25;;;2.15;;
55813;SDS011;65494;42.818;0.404;2024-03-25T07:14:22;8.20;;;1.77;;
55813;SDS011;65494;42.818;0.404;2024-03-25T07:16:49;3.95;;;1.60;;
55813;SDS011;65494;42.818;0.404;2024-03-25T07:19:15;4.78;;;1.83;;
55813;SDS011;65494;42.818;0.404;2024-03-25T07:21:42;4.07;;;1.55;;
55813;SDS011;65494;42.818;0.404;2024-03-25T07:24:08;5.72;;;1.90;;
55813;SDS011;65494;42.818;0.404;2024-03-25T07:26:34;9.40;;;2.10;;
55813;SDS011;65494;42.818;0.404;2024-03-25T07:29:00;3.97;;;1.75;;
55813;SDS011;65494;42.818;0.404;2024-03-25T07:31:26;4.90;;;1.45;;
55813;SDS011;65494;42.818;0.404;2024-03-25T07:33:53;4.70;;;1.60;;
55813;SDS011;65494;42.818;0.404;2024-03-25T07:36:19;7.82;;;1.55;;
55813;SDS011;65494;42.818;0.404;2024-03-25T07:38:45;4.78;;;2.00;;
55813;SDS011;65494;42.818;0.404;2024-03-25T07:41:11;6.30;;;1.40;;
55813;SDS011;65494;42.818;0.404;2024-03-25T07:43:38;4.53;;;1.58;;
55813;SDS011;65494;42.818;0.404;2024-03-25T07:46:04;9.15;;;1.77;;
55813;SDS011;65494;42.818;0.404;2024-03-25T07:48:30;4.80;;;1.60;;
55813;SDS011;65494;42.818;0.404;2024-03-25T07:50:56;5.65;;;1.50;;
55813;SDS011;65494;42.818;0.404;2024-03-25T07:53:22;4.15;;;1.67;;
55813;SDS011;65494;42.818;0.404;2024-03-25T07:55:48;9.15;;;1.58;;
55813;SDS011;65494;42.818;0.404;2024-03-25T07:58:16;5.25;;;1.50;;
55813;SDS011;65494;42.818;0.404;2024-03-25T08:00:42;4.75;;;1.40;;
55813;SDS011;65494;42.818;0.404;2024-03-25T08:03:08;4.70;;;1.35;;
55813;SDS011;65494;42.818;0.404;2024-03-25T08:05:34;5.80;;;1.40;;
55813;SDS011;65494;42.818;0.404;2024-03-25T08:08:00;6.07;;;1.42;;
55813;SDS011;65494;42.818;0.404;2024-03-25T08:10:26;4.65;;;1.40;;
55813;SDS011;65494;42.818;0.404;2024-03-25T08:12:53;2.95;;;1.23;;
55813;SDS011;65494;42.818;0.404;2024-03-25T08:15:19;3.25;;;1.20;;
55813;SDS011;65494;42.818;0.404;2024-03-25T08:17:45;5.40;;;1.30;;
55813;SDS011;65494;42.818;0.404;2024-03-25T08:20:11;9.73;;;1.60;;
55813;SDS011;65494;42.818;0.404;2024-03-25T08:22:38;2.55;;;1.30;;
55813;SDS011;65494;42.818;0.404;2024-03-25T08:25:04;4.43;;;1.27;;
55813;SDS011;65494;42.818;0.404;2024-03-25T08:27:30;8.20;;;1.63;;
55813;SDS011;65494;42.818;0.404;2024-03-25T08:29:56;4.15;;;1.30;;
55813;SDS011;65494;42.818;0.404;2024-03-25T08:32:22;3.10;;;1.27;;
55813;SDS011;65494;42.818;0.404;2024-03-25T08:34:48;3.17;;;1.40;;
55813;SDS011;65494;42.818;0.404;2024-03-25T08:37:14;4.82;;;1.38;;
55813;SDS011;65494;42.818;0.404;2024-03-25T08:39:40;5.05;;;1.20;;
55813;SDS011;65494;42.818;0.404;2024-03-25T08:42:06;2.60;;;1.27;;
55813;SDS011;65494;42.818;0.404;2024-03-25T08:44:32;5.88;;;1.52;;
55813;SDS011;65494;42.818;0.404;2024-03-25T08:46:58;4.55;;;1.60;;
55813;SDS011;65494;42.818;0.404;2024-03-25T08:49:24;4.70;;;1.85;;
55813;SDS011;65494;42.818;0.404;2024-03-25T08:51:50;4.82;;;1.52;;
55813;SDS011;65494;42.818;0.404;2024-03-25T08:54:16;5.43;;;1.35;;
55813;SDS011;65494;42.818;0.404;2024-03-25T08:56:42;7.70;;;1.60;;
55813;SDS011;65494;42.818;0.404;2024-03-25T08:59:10;5.05;;;1.40;;
55813;SDS011;65494;42.818;0.404;2024-03-25T09:01:36;9.00;;;1.95;;
55813;SDS011;65494;42.818;0.404;2024-03-25T09:04:02;3.28;;;1.50;;
55813;SDS011;65494;42.818;0.404;2024-03-25T09:06:29;3.65;;;1.30;;
55813;SDS011;65494;42.818;0.404;2024-03-25T09:08:55;3.53;;;1.20;;
55813;SDS011;65494;42.818;0.404;2024-03-25T09:11:44;2.20;;;0.80;;
55813;SDS011;65494;42.818;0.404;2024-03-25T09:14:10;2.95;;;0.80;;
55813;SDS011;65494;42.818;0.404;2024-03-25T09:16:37;14.32;;;2.28;;
55813;SDS011;65494;42.818;0.404;2024-03-25T09:19:03;4.75;;;1.00;;
55813;SDS011;65494;42.818;0.404;2024-03-25T09:21:29;7.13;;;2.55;;
55813;SDS011;65494;42.818;0.404;2024-03-25T09:23:55;6.28;;;1.85;;
55813;SDS011;65494;42.818;0.404;2024-03-25T09:26:23;13.00;;;2.03;;
55813;SDS011;65494;42.818;0.404;2024-03-25T09:28:49;18.90;;;2.33;;
55813;SDS011;65494;42.818;0.404;2024-03-25T09:31:15;17.13;;;2.55;;
55813;SDS011;65494;42.818;0.404;2024-03-25T09:33:41;21.10;;;3.55;;
55813;SDS011;65494;42.818;0.404;2024-03-25T09:36:07;34.97;;;3.88;;
55813;SDS011;65494;42.818;0.404;2024-03-25T09:38:33;36.55;;;4.15;;
55813;SDS011;65494;42.818;0.404;2024-03-25T09:40:59;31.25;;;3.95;;
55813;SDS011;65494;42.818;0.404;2024-03-25T09:43:28;31.35;;;3.58;;
55813;SDS011;65494;42.818;0.404;2024-03-25T09:45:58;31.42;;;3.47;;
55813;SDS011;65494;42.818;0.404;2024-03-25T09:48:24;39.03;;;4.55;;
55813;SDS011;65494;42.818;0.404;2024-03-25T09:50:51;32.50;;;4.43;;
55813;SDS011;65494;42.818;0.404;2024-03-25T09:53:18;40.45;;;4.65;;
55813;SDS011;65494;42.818;0.404;2024-03-25T09:55:46;30.95;;;4.55;;
55813;SDS011;65494;42.818;0.404;2024-03-25T09:58:13;35.38;;;3.95;;
55813;SDS011;65494;42.818;0.404;2024-03-25T10:00:40;34.30;;;4.20;;
55813;SDS011;65494;42.818;0.404;2024-03-25T10:03:06;38.53;;;5.93;;
55813;SDS011;65494;42.818;0.404;2024-03-25T10:05:32;37.17;;;4.20;;
55813;SDS011;65494;42.818;0.404;2024-03-25T10:07:58;33.85;;;4.80;;
55813;SDS011;65494;42.818;0.404;2024-03-25T10:10:24;48.55;;;5.57;;
55813;SDS011;65494;42.818;0.404;2024-03-25T10:12:50;32.00;;;4.30;;
55813;SDS011;65494;42.818;0.404;2024-03-25T10:15:17;35.90;;;5.25;;
55813;SDS011;65494;42.818;0.404;2024-03-25T10:17:43;23.20;;;4.65;;
55813;SDS011;65494;42.818;0.404;2024-03-25T10:20:13;34.30;;;4.00;;
55813;SDS011;65494;42.818;0.404;2024-03-25T10:22:42;34.85;;;4.15;;
55813;SDS011;65494;42.818;0.404;2024-03-25T10:25:28;27.55;;;4.10;;
55813;SDS011;65494;42.818;0.404;2024-03-25T10:27:54;28.50;;;4.00;;
55813;SDS011;65494;42.818;0.404;2024-03-25T10:30:20;31.95;;;3.97;;
55813;SDS011;65494;42.818;0.404;2024-03-25T10:32:57;28.88;;;3.92;;
55813;SDS011;65494;42.818;0.404;2024-03-25T10:35:24;25.77;;;3.20;;
55813;SDS011;65494;42.818;0.404;2024-03-25T10:37:51;23.17;;;3.38;;
55813;SDS011;65494;42.818;0.404;2024-03-25T10:40:19;29.70;;;3.22;;
55813;SDS011;65494;42.818;0.404;2024-03-25T10:42:46;22.55;;;3.08;;
55813;SDS011;65494;42.818;0.404;2024-03-25T10:45:12;22.20;;;2.70;;
55813;SDS011;65494;42.818;0.404;2024-03-25T10:47:38;18.45;;;2.05;;
55813;SDS011;65494;42.818;0.404;2024-03-25T10:50:08;11.88;;;2.25;;
55813;SDS011;65494;42.818;0.404;2024-03-25T10:52:35;22.33;;;3.08;;
55813;SDS011;65494;42.818;0.404;2024-03-25T10:55:02;12.95;;;2.10;;
55813;SDS011;65494;42.818;0.404;2024-03-25T10:57:28;12.75;;;1.83;;
55813;SDS011;65494;42.818;0.404;2024-03-25T10:59:55;9.10;;;2.05;;
55813;SDS011;65494;42.818;0.404;2024-03-25T11:02:21;15.65;;;1.65;;
55813;SDS011;65494;42.818;0.404;2024-03-25T11:04:47;12.10;;;1.42;;
55813;SDS011;65494;42.818;0.404;2024-03-25T11:07:16;18.42;;;3.88;;
55813;SDS011;65494;42.818;0.404;2024-03-25T11:09:43;9.20;;;1.92;;
55813;SDS011;65494;42.818;0.404;2024-03-25T11:12:12;11.57;;;1.58;;
55813;SDS011;65494;42.818;0.404;2024-03-25T11:14:39;11.80;;;1.42;;
55813;SDS011;65494;42.818;0.404;2024-03-25T11:17:15;13.73;;;1.80;;
55813;SDS011;65494;42.818;0.404;2024-03-25T11:19:41;16.08;;;1.42;;
55813;SDS011;65494;42.818;0.404;2024-03-25T11:22:08;9.60;;;1.33;;
55813;SDS011;65494;42.818;0.404;2024-03-25T11:24:38;7.18;;;1.20;;
55813;SDS011;65494;42.818;0.404;2024-03-25T11:27:09;8.73;;;1.27;;
55813;SDS011;65494;42.818;0.404;2024-03-25T11:29:35;9.70;;;1.10;;
55813;SDS011;65494;42.818;0.404;2024-03-25T11:32:05;9.73;;;1.40;;
55813;SDS011;65494;42.818;0.404;2024-03-25T11:34:32;8.98;;;1.42;;
55813;SDS011;65494;42.818;0.404;2024-03-25T11:36:59;12.25;;;1.10;;
55813;SDS011;65494;42.818;0.404;2024-03-25T11:39:25;12.27;;;2.20;;
55813;SDS011;65494;42.818;0.404;2024-03-25T11:41:53;10.20;;;2.05;;
55813;SDS011;65494;42.818;0.404;2024-03-25T11:44:19;6.75;;;1.33;;
55813;SDS011;65494;42.818;0.404;2024-03-25T11:46:49;10.93;;;1.30;;
55813;SDS011;65494;42.818;0.404;2024-03-25T11:49:20;9.27;;;1.20;;
55813;SDS011;65494;42.818;0.404;2024-03-25T11:51:47;11.15;;;1.23;;
55813;SDS011;65494;42.818;0.404;2024-03-25T11:54:13;11.40;;;1.17;;
55813;SDS011;65494;42.818;0.404;2024-03-25T11:56:40;12.85;;;1.10;;
55813;SDS011;65494;42.818;0.404;2024-03-25T11:59:08;2.05;;;0.47;;
55813;SDS011;65494;42.818;0.404;2024-03-25T12:01:35;8.90;;;0.57;;
55813;SDS011;65494;42.818;0.404;2024-03-25T12:04:16;5.05;;;0.70;;
55813;SDS011;65494;42.818;0.404;2024-03-25T12:06:43;2.72;;;0.30;;
55813;SDS011;65494;42.818;0.404;2024-03-25T12:09:10;3.38;;;0.30;;
55813;SDS011;65494;42.818;0.404;2024-03-25T12:11:54;3.58;;;0.40;;
55813;SDS011;65494;42.818;0.404;2024-03-25T12:14:21;4.32;;;0.30;;
55813;SDS011;65494;42.818;0.404;2024-03-25T12:16:48;3.35;;;0.28;;
55813;SDS011;65494;42.818;0.404;2024-03-25T12:19:15;0.70;;;0.20;;
55813;SDS011;65494;42.818;0.404;2024-03-25T12:21:43;0.40;;;0.20;;
55813;SDS011;65494;42.818;0.404;2024-03-25T12:24:09;0.10;;;0.10;;
55813;SDS011;65494;42.818;0.404;2024-03-25T12:26:36;1.33;;;0.30;;
55813;SDS011;65494;42.818;0.404;2024-03-25T12:29:02;2.03;;;0.10;;
55813;SDS011;65494;42.818;0.404;2024-03-25T12:31:29;2.83;;;0.30;;
55813;SDS011;65494;42.818;0.404;2024-03-25T12:33:55;0.80;;;0.17;;
55813;SDS011;65494;42.818;0.404;2024-03-25T12:36:22;1.63;;;0.20;;
55813;SDS011;65494;42.818;0.404;2024-03-25T12:38:55;3.50;;;0.35;;
55813;SDS011;65494;42.818;0.404;2024-03-25T12:41:24;0.55;;;0.30;;
55813;SDS011;65494;42.818;0.404;2024-03-25T12:43:50;2.22;;;0.40;;
55813;SDS011;65494;42.818;0.404;2024-03-25T12:46:16;0.85;;;0.20;;
55813;SDS011;65494;42.818;0.404;2024-03-25T12:48:43;0.65;;;0.30;;
55813;SDS011;65494;42.818;0.404;2024-03-25T12:51:13;0.32;;;0.30;;
55813;SDS011;65494;42.818;0.404;2024-03-25T12:53:39;0.20;;;0.20;;
55813;SDS011;65494;42.818;0.404;2024-03-25T12:56:05;0.10;;;0.10;;
55813;SDS011;65494;42.818;0.404;2024-03-25T12:58:32;0.55;;;0.20;;
55813;SDS011;65494;42.818;0.404;2024-03-25T13:00:58;0.10;;;0.10;;
55813;SDS011;65494;42.818;0.404;2024-03-25T13:03:24;1.13;;;0.20;;
55813;SDS011;65494;42.818;0.404;2024-03-25T13:05:50;0.20;;;0.20;;
55813;SDS011;65494;42.818;0.404;2024-03-25T13:08:16;0.22;;;0.22;;
55813;SDS011;65494;42.818;0.404;2024-03-25T13:10:42;0.20;;;0.20;;
55813;SDS011;65494;42.818;0.404;2024-03-25T13:13:09;0.15;;;0.15;;
55813;SDS011;65494;42.818;0.404;2024-03-25T13:15:35;0.20;;;0.20;;
55813;SDS011;65494;42.818;0.404;2024-03-25T13:18:01;0.65;;;0.22;;
55813;SDS011;65494;42.818;0.404;2024-03-25T13:20:27;0.25;;;0.25;;
55813;SDS011;65494;42.818;0.404;2024-03-25T13:22:53;0.65;;;0.20;;
55813;SDS011;65494;42.818;0.404;2024-03-25T13:25:24;0.70;;;0.10;;
55813;SDS011;65494;42.818;0.404;2024-03-25T13:27:52;0.10;;;0.10;;
55813;SDS011;65494;42.818;0.404;2024-03-25T13:30:18;1.20;;;0.20;;
55813;SDS011;65494;42.818;0.404;2024-03-25T13:32:44;1.98;;;0.30;;
55813;SDS011;65494;42.818;0.404;2024-03-25T13:35:10;0.10;;;0.10;;
55813;SDS011;65494;42.818;0.404;2024-03-25T13:37:36;0.10;;;0.10;;
55813;SDS011;65494;42.818;0.404;2024-03-25T13:40:02;1.55;;;0.00;;
55813;SDS011;65494;42.818;0.404;2024-03-25T13:42:30;0.20;;;0.20;;
55813;SDS011;65494;42.818;0.404;2024-03-25T13:44:57;1.90;;;0.10;;
55813;SDS011;65494;42.818;0.404;2024-03-25T13:47:23;0.10;;;0.10;;
55813;SDS011;65494;42.818;0.404;2024-03-25T13:49:49;0.10;;;0.10;;
55813;SDS011;65494;42.818;0.404;2024-03-25T13:52:15;1.38;;;0.17;;
55813;SDS011;65494;42.818;0.404;2024-03-25T13:54:41;1.25;;;0.10;;
55813;SDS011;65494;42.818;0.404;2024-03-25T13:57:07;0.10;;;0.10;;
55813;SDS011;65494;42.818;0.404;2024-03-25T13:59:34;0.30;;;0.10;;
55813;SDS011;65494;42.818;0.404;2024-03-25T14:02:00;0.10;;;0.10;;
55813;SDS011;65494;42.818;0.404;2024-03-25T14:04:26;0.10;;;0.10;;
55813;SDS011;65494;42.818;0.404;2024-03-25T14:06:52;1.75;;;0.20;;
55813;SDS011;65494;42.818;0.404;2024-03-25T14:09:24;0.10;;;0.10;;
55813;SDS011;65494;42.818;0.404;2024-03-25T14:11:50;0.10;;;0.10;;
55813;SDS011;65494;42.818;0.404;2024-03-25T14:14:17;0.10;;;0.10;;
55813;SDS011;65494;42.818;0.404;2024-03-25T14:16:43;0.10;;;0.10;;
55813;SDS011;65494;42.818;0.404;2024-03-25T14:19:09;0.25;;;0.20;;
55813;SDS011;65494;42.818;0.404;2024-03-25T14:21:35;0.10;;;0.10;;
55813;SDS011;65494;42.818;0.404;2024-03-25T14:24:01;0.10;;;0.10;;
55813;SDS011;65494;42.818;0.404;2024-03-25T14:26:27;0.10;;;0.10;;
55813;SDS011;65494;42.818;0.404;2024-03-25T14:28:53;0.10;;;0.10;;
55813;SDS011;65494;42.818;0.404;2024-03-25T14:31:19;0.10;;;0.10;;
55813;SDS011;65494;42.818;0.404;2024-03-25T14:33:45;0.10;;;0.10;;
55813;SDS011;65494;42.818;0.404;2024-03-25T14:36:11;0.13;;;0.13;;
55813;SDS011;65494;42.818;0.404;2024-03-25T14:38:37;0.10;;;0.10;;
55813;SDS011;65494;42.818;0.404;2024-03-25T14:41:04;3.17;;;0.25;;
55813;SDS011;65494;42.818;0.404;2024-03-25T14:43:30;0.22;;;0.10;;
55813;SDS011;65494;42.818;0.404;2024-03-25T14:45:56;0.10;;;0.10;;
55813;SDS011;65494;42.818;0.404;2024-03-25T14:48:22;0.45;;;0.10;;
55813;SDS011;65494;42.818;0.404;2024-03-25T14:50:48;0.10;;;0.10;;
55813;SDS011;65494;42.818;0.404;2024-03-25T14:53:15;0.20;;;0.20;;
55813;SDS011;65494;42.818;0.404;2024-03-25T14:55:42;0.10;;;0.10;;
55813;SDS011;65494;42.818;0.404;2024-03-25T14:58:08;0.10;;;0.10;;
55813;SDS011;65494;42.818;0.404;2024-03-25T15:00:34;0.10;;;0.10;;
55813;SDS011;65494;42.818;0.404;2024-03-25T15:03:01;0.20;;;0.20;;
55813;SDS011;65494;42.818;0.404;2024-03-25T15:05:27;0.38;;;0.30;;
55813;SDS011;65494;42.818;0.404;2024-03-25T15:07:53;0.20;;;0.20;;
55813;SDS011;65494;42.818;0.404;2024-03-25T15:10:19;0.77;;;0.40;;
55813;SDS011;65494;42.818;0.404;2024-03-25T15:12:46;0.47;;;0.35;;
55813;SDS011;65494;42.818;0.404;2024-03-25T15:15:12;0.65;;;0.10;;
55813;SDS011;65494;42.818;0.404;2024-03-25T15:17:38;0.40;;;0.32;;
55813;SDS011;65494;42.818;0.404;2024-03-25T15:20:04;0.30;;;0.30;;
55813;SDS011;65494;42.818;0.404;2024-03-25T15:22:31;0.35;;;0.30;;
55813;SDS011;65494;42.818;0.404;2024-03-25T15:24:57;0.10;;;0.10;;
55813;SDS011;65494;42.818;0.404;2024-03-25T15:27:23;0.30;;;0.10;;
55813;SDS011;65494;42.818;0.404;2024-03-25T15:29:49;0.20;;;0.10;;
55813;SDS011;65494;42.818;0.404;2024-03-25T15:32:15;0.28;;;0.28;;
55813;SDS011;65494;42.818;0.404;2024-03-25T15:34:42;0.20;;;0.20;;
55813;SDS011;65494;42.818;0.404;2024-03-25T15:37:08;0.10;;;0.10;;
55813;SDS011;65494;42.818;0.404;2024-03-25T15:39:37;0.10;;;0.10;;
55813;SDS011;65494;42.818;0.404;2024-03-25T15:42:03;0.20;;;0.20;;
55813;SDS011;65494;42.818;0.404;2024-03-25T15:44:31;0.20;;;0.15;;
55813;SDS011;65494;42.818;0.404;2024-03-25T15:46:57;1.67;;;0.20;;
55813;SDS011;65494;42.818;0.404;2024-03-25T15:49:23;0.10;;;0.10;;
55813;SDS011;65494;42.818;0.404;2024-03-25T15:51:49;0.20;;;0.20;;
55813;SDS011;65494;42.818;0.404;2024-03-25T15:54:15;0.20;;;0.10;;
55813;SDS011;65494;42.818;0.404;2024-03-25T15:56:41;0.10;;;0.10;;
55813;SDS011;65494;42.818;0.404;2024-03-25T15:59:07;0.10;;;0.10;;
55813;SDS011;65494;42.818;0.404;2024-03-25T16:01:33;1.77;;;0.20;;
55813;SDS011;65494;42.818;0.404;2024-03-25T16:03:59;0.10;;;0.10;;
55813;SDS011;65494;42.818;0.404;2024-03-25T16:06:25;7.63;;;0.60;;
55813;SDS011;65494;42.818;0.404;2024-03-25T16:08:52;0.20;;;0.20;;
55813;SDS011;65494;42.818;0.404;2024-03-25T16:11:19;0.10;;;0.10;;
55813;SDS011;65494;42.818;0.404;2024-03-25T16:13:45;0.20;;;0.20;;
55813;SDS011;65494;42.818;0.404;2024-03-25T16:16:14;0.10;;;0.10;;
55813;SDS011;65494;42.818;0.404;2024-03-25T16:18:40;1.45;;;0.30;;
55813;SDS011;65494;42.818;0.404;2024-03-25T16:21:15;0.17;;;0.17;;
55813;SDS011;65494;42.818;0.404;2024-03-25T16:23:43;0.10;;;0.10;;
55813;SDS011;65494;42.818;0.404;2024-03-25T16:26:10;0.20;;;0.20;;
55813;SDS011;65494;42.818;0.404;2024-03-25T16:28:39;2.10;;;0.22;;
55813;SDS011;65494;42.818;0.404;2024-03-25T16:31:05;1.50;;;0.20;;
55813;SDS011;65494;42.818;0.404;2024-03-25T16:33:31;0.50;;;0.40;;
55813;SDS011;65494;42.818;0.404;2024-03-25T16:35:57;0.57;;;0.47;;
55813;SDS011;65494;42.818;0.404;2024-03-25T16:38:24;8.38;;;1.95;;
55813;SDS011;65494;42.818;0.404;2024-03-25T16:40:50;2.40;;;1.65;;
55813;SDS011;65494;42.818;0.404;2024-03-25T16:43:19;5.45;;;2.20;;
55813;SDS011;65494;42.818;0.404;2024-03-25T16:45:45;5.72;;;1.75;;
55813;SDS011;65494;42.818;0.404;2024-03-25T16:48:11;19.38;;;9.32;;
55813;SDS011;65494;42.818;0.404;2024-03-25T16:50:37;3.03;;;1.52;;
55813;SDS011;65494;42.818;0.404;2024-03-25T16:53:03;7.57;;;2.83;;
55813;SDS011;65494;42.818;0.404;2024-03-25T16:55:29;1.38;;;0.75;;
55813;SDS011;65494;42.818;0.404;2024-03-25T16:57:55;1.27;;;0.82;;
55813;SDS011;65494;42.818;0.404;2024-03-25T17:00:21;0.98;;;0.40;;
55813;SDS011;65494;42.818;0.404;2024-03-25T17:02:48;1.02;;;0.10;;
55813;SDS011;65494;42.818;0.404;2024-03-25T17:05:15;0.30;;;0.30;;
55813;SDS011;65494;42.818;0.404;2024-03-25T17:07:41;0.65;;;0.20;;
55813;SDS011;65494;42.818;0.404;2024-03-25T17:10:07;0.60;;;0.30;;
55813;SDS011;65494;42.818;0.404;2024-03-25T17:12:34;3.33;;;1.40;;
55813;SDS011;65494;42.818;0.404;2024-03-25T17:15:02;0.10;;;0.10;;
55813;SDS011;65494;42.818;0.404;2024-03-25T17:17:28;0.20;;;0.20;;
55813;SDS011;65494;42.818;0.404;2024-03-25T17:19:54;1.65;;;0.20;;
55813;SDS011;65494;42.818;0.404;2024-03-25T17:22:20;0.20;;;0.20;;
55813;SDS011;65494;42.818;0.404;2024-03-25T17:24:46;0.30;;;0.20;;
55813;SDS011;65494;42.818;0.404;2024-03-25T17:27:13;0.20;;;0.20;;
55813;SDS011;65494;42.818;0.404;2024-03-25T17:29:39;0.73;;;0.30;;
55813;SDS011;65494;42.818;0.404;2024-03-25T17:32:05;1.60;;;0.70;;
55813;SDS011;65494;42.818;0.404;2024-03-25T17:34:31;0.77;;;0.70;;
55813;SDS011;65494;42.818;0.404;2024-03-25T17:36:57;0.30;;;0.30;;
55813;SDS011;65494;42.818;0.404;2024-03-25T17:39:23;6.10;;;1.10;;
55813;SDS011;65494;42.818;0.404;2024-03-25T17:41:49;9.15;;;1.60;;
55813;SDS011;65494;42.818;0.404;2024-03-25T17:44:15;117.90;;;39.45;;
55813;SDS011;65494;42.818;0.404;2024-03-25T17:46:41;8.30;;;4.07;;
55813;SDS011;65494;42.818;0.404;2024-03-25T17:49:07;7.68;;;1.95;;
55813;SDS011;65494;42.818;0.404;2024-03-25T17:51:33;6.75;;;2.65;;